Old Ocean, TX (77463)

8:34 PM CST on November 22, 2014 (GMT -0600)
Gayle Estates | Change Station
CLOSE
Current Station
Personal Weather Station
Location: West Columbia, TX
Elevation: 49 ft
Nearby Weather Stations

Elev 49 ft 29.18 °N, 95.71 °W | Updated 11 minutes ago

Thunderstorm
Thunderstorm
67.4 °F
Feels Like 67.4 °F
N
1.0
Wind Variable Wind from South
Gusts 8.0 mph

Today
High -- | Low -- °F
--% Chance of Precip.
Yesterday
High -- | Low -- °F
Precip. -- in
6:52 AM 5:25 PM
New Moon, 0% visible
Pressure 29.80 in
Visibility 1.8 miles
Clouds
Dew Point 66 °F
Humidity 95%
Rainfall 0.37 in
Snow Depth Not available.
UV Not available.
Pollen .80 out of 12
Air Quality Not available.
Flu Activity Not available.
METAR KBYY 230215Z AUTO 23004KT 1 3/4SM +RA 20/20 A2980 RMK AO2 VIS 1V2 1/2 T02050200

More Conditions Fewer Conditions

Pressure 29.80 in
Visibility 1.8 miles
Clouds
Dew Point 66 °F
Humidity 95%
Rainfall 0.37 in
Snow Depth Not available.
UV Not available.
Pollen .80 out of 12
Air Quality Not available.
Flu Activity Not available.
METAR KBYY 230215Z AUTO 23004KT 1 3/4SM +RA 20/20 A2980 RMK AO2 VIS 1V2 1/2 T02050200

More Conditions Fewer Conditions

10-Day Weather Forecast

Almanac

Astronomy

Nov. 22, 2014 Rise Set
Actual Time
Civil Twilight
Nautical Twilight
Astronomical Twilight
Moon
Length of Visible Light
Length of Day
Tomorrow will be .
, % of the Moon is Illuminated

Today's Extremes

State Highs State Lows

Community

WunderPhotos

Upload Photos

1,772,977 photos uploaded!

WunderBlogs® & News

Nearby

Air Quality

  Air Quality AQ Index Pollutant
Not available.

Snow Depth

Station Depth Elevation

Earthquake Activity

City Distance Mag. Time & Date
Minimum magnitude displayed is 2.5.

Coastal Water Temperatures

Place Temperature

Nearby Weather Stations